createdAt,value
2023-02-15T00:00:07.166Z,1.51
2023-02-15T00:01:07.121Z,1.50
2023-02-15T00:02:07.179Z,1.50
2023-02-15T00:03:07.214Z,1.50
2023-02-15T00:04:07.098Z,1.48
2023-02-15T00:05:07.327Z,1.48
2023-02-15T00:06:07.051Z,1.47
2023-02-15T00:07:07.107Z,1.48
2023-02-15T00:08:07.047Z,1.44
2023-02-15T00:09:07.015Z,1.45
2023-02-15T00:10:07.022Z,1.42
2023-02-15T00:11:07.045Z,1.42
2023-02-15T00:12:07.039Z,1.42
2023-02-15T00:13:06.973Z,1.42
2023-02-15T00:14:06.993Z,1.42
2023-02-15T00:15:06.976Z,1.42
2023-02-15T00:16:07.003Z,1.44
2023-02-15T00:17:06.937Z,1.42
2023-02-15T00:18:06.903Z,1.42
2023-02-15T00:19:06.935Z,1.44
2023-02-15T00:20:06.906Z,1.42
2023-02-15T00:21:06.905Z,1.45
2023-02-15T00:22:06.918Z,1.45
2023-02-15T00:23:06.857Z,1.45
2023-02-15T00:24:06.876Z,1.44
2023-02-15T00:25:06.847Z,1.42
2023-02-15T00:26:06.839Z,1.44
2023-02-15T00:27:06.862Z,1.45
2023-02-15T00:28:06.837Z,1.50
2023-02-15T00:29:06.807Z,1.52
2023-02-15T00:30:06.857Z,1.54
2023-02-15T00:31:06.933Z,1.55
2023-02-15T00:32:06.765Z,1.58
2023-02-15T00:33:06.808Z,1.55
2023-02-15T00:34:06.742Z,1.54
2023-02-15T00:35:06.706Z,1.52
2023-02-15T00:36:06.714Z,1.52
2023-02-15T00:37:06.738Z,1.52
2023-02-15T00:38:06.728Z,1.54
2023-02-15T00:39:06.687Z,1.54
2023-02-15T00:40:06.677Z,1.52
2023-02-15T00:41:06.668Z,1.51
2023-02-15T00:42:06.638Z,1.47
2023-02-15T00:43:06.645Z,1.47
2023-02-15T00:44:06.666Z,1.44
2023-02-15T00:45:06.640Z,1.42
2023-02-15T00:46:06.700Z,1.36
2023-02-15T00:47:06.614Z,1.34
2023-02-15T00:48:06.558Z,1.33
2023-02-15T00:49:06.581Z,1.30
2023-02-15T00:50:06.582Z,1.32
2023-02-15T00:51:06.557Z,1.33
2023-02-15T00:52:06.519Z,1.34
2023-02-15T00:53:06.525Z,1.36
2023-02-15T00:54:06.560Z,1.37
2023-02-15T00:55:06.561Z,1.41
2023-02-15T00:56:06.503Z,1.34
2023-02-15T00:57:06.458Z,1.33
2023-02-15T00:58:06.467Z,1.30
2023-02-15T00:59:06.472Z,1.29
2023-02-15T01:00:06.481Z,1.30
2023-02-15T01:01:06.494Z,1.29
2023-02-15T01:02:06.441Z,1.29
2023-02-15T01:03:06.383Z,1.27
2023-02-15T01:04:06.433Z,1.27
2023-02-15T01:05:06.406Z,1.24
2023-02-15T01:06:06.411Z,1.24
2023-02-15T01:07:06.378Z,1.27
2023-02-15T01:08:06.380Z,1.29
2023-02-15T01:09:06.372Z,1.29
2023-02-15T01:10:06.318Z,1.30
2023-02-15T01:11:06.294Z,1.29
2023-02-15T01:12:06.350Z,1.27
2023-02-15T01:13:06.288Z,1.27
2023-02-15T01:14:06.295Z,1.33
2023-02-15T01:15:06.297Z,1.34
2023-02-15T01:16:06.334Z,1.37
2023-02-15T01:17:06.276Z,1.40
2023-02-15T01:18:06.243Z,1.42
2023-02-15T01:19:06.235Z,1.40
2023-02-15T01:20:06.231Z,1.36
2023-02-15T01:21:06.202Z,1.33
2023-02-15T01:22:06.220Z,1.32
2023-02-15T01:23:06.199Z,1.32
2023-02-15T01:24:06.147Z,1.33
2023-02-15T01:25:06.159Z,1.32
2023-02-15T01:26:06.145Z,1.30
2023-02-15T01:27:06.176Z,1.27
2023-02-15T01:28:06.108Z,1.24
2023-02-15T01:29:06.108Z,1.22
2023-02-15T01:30:06.139Z,1.20
2023-02-15T01:31:06.200Z,1.18
2023-02-15T01:32:06.255Z,1.16
2023-02-15T01:33:06.084Z,1.22
2023-02-15T01:34:06.084Z,1.20
2023-02-15T01:35:06.020Z,1.23
2023-02-15T01:36:06.017Z,1.20
2023-02-15T01:37:06.024Z,1.18
2023-02-15T01:38:06.016Z,1.16
2023-02-15T01:39:06.024Z,1.16
2023-02-15T01:40:05.966Z,1.20
2023-02-15T01:41:06.011Z,1.16
2023-02-15T01:42:05.986Z,1.15
2023-02-15T01:43:05.945Z,1.14
2023-02-15T01:44:05.932Z,1.14
2023-02-15T01:45:05.939Z,1.14
2023-02-15T01:46:05.932Z,1.09
2023-02-15T01:47:05.921Z,1.06
2023-02-15T01:48:05.964Z,1.05
2023-02-15T01:49:05.895Z,1.00
2023-02-15T01:50:05.842Z,1.00
2023-02-15T01:51:05.848Z,0.98
2023-02-15T01:52:05.835Z,0.94
2023-02-15T01:53:05.846Z,0.93
2023-02-15T01:54:05.853Z,0.96
2023-02-15T01:55:07.333Z,0.94
2023-02-15T01:56:05.775Z,0.94
2023-02-15T01:57:05.795Z,0.94
2023-02-15T01:58:05.796Z,0.90
2023-02-15T01:59:05.788Z,0.91
2023-02-15T02:00:05.735Z,0.90
2023-02-15T02:01:05.711Z,0.90
2023-02-15T02:02:05.730Z,0.90
2023-02-15T02:03:05.867Z,0.91
2023-02-15T02:04:05.715Z,0.91
2023-02-15T02:05:05.691Z,0.91
2023-02-15T02:06:05.697Z,0.86
2023-02-15T02:07:05.642Z,0.78
2023-02-15T02:08:05.669Z,0.76
2023-02-15T02:09:05.624Z,0.75
2023-02-15T02:10:05.640Z,0.75
2023-02-15T02:11:05.632Z,0.79
2023-02-15T02:12:05.581Z,0.79
2023-02-15T02:13:05.599Z,0.80
2023-02-15T02:14:05.590Z,0.83
2023-02-15T02:15:05.609Z,0.83
2023-02-15T02:16:05.599Z,0.79
2023-02-15T02:17:05.566Z,0.79
2023-02-15T02:18:05.545Z,0.76
2023-02-15T02:19:05.508Z,0.70
2023-02-15T02:20:05.566Z,0.68
2023-02-15T02:21:05.511Z,0.72
2023-02-15T02:22:05.520Z,0.72
2023-02-15T02:23:05.460Z,0.72
2023-02-15T02:24:05.506Z,0.72
2023-02-15T02:25:05.451Z,0.72
2023-02-15T02:26:05.445Z,0.72
2023-02-15T02:27:05.441Z,0.69
2023-02-15T02:28:06.441Z,0.68
2023-02-15T02:29:05.405Z,0.70
2023-02-15T02:30:05.467Z,0.75
2023-02-15T02:31:05.527Z,0.75
2023-02-15T02:32:05.457Z,0.70
2023-02-15T02:33:11.567Z,0.69
2023-02-15T02:34:05.337Z,0.68
2023-02-15T02:35:05.358Z,0.66
2023-02-15T02:36:05.340Z,0.65
2023-02-15T02:37:05.336Z,0.61
2023-02-15T02:38:05.312Z,0.65
2023-02-15T02:39:05.310Z,0.62
2023-02-15T02:40:05.273Z,0.65
2023-02-15T02:41:05.287Z,0.62
2023-02-15T02:42:05.289Z,0.66
2023-02-15T02:43:05.260Z,0.65
2023-02-15T02:44:05.234Z,0.60
2023-02-15T02:45:05.211Z,0.57
2023-02-15T02:46:05.238Z,0.57
2023-02-15T02:47:05.178Z,0.55
2023-02-15T02:48:05.232Z,0.53
2023-02-15T02:49:05.173Z,0.51
2023-02-15T02:50:05.161Z,0.51
2023-02-15T02:51:05.141Z,0.51
2023-02-15T02:52:05.166Z,0.49
2023-02-15T02:53:05.162Z,0.51
2023-02-15T02:54:05.112Z,0.49
2023-02-15T02:55:05.100Z,0.47
2023-02-15T02:56:05.085Z,0.46
2023-02-15T02:57:05.100Z,0.47
2023-02-15T02:58:05.135Z,0.46
2023-02-15T02:59:05.089Z,0.46
2023-02-15T03:00:05.112Z,0.46
2023-02-15T03:01:05.019Z,0.41
2023-02-15T03:02:05.125Z,0.39
2023-02-15T03:03:05.069Z,0.36
2023-02-15T03:04:05.054Z,0.35
2023-02-15T03:05:05.042Z,0.35
2023-02-15T03:06:04.996Z,0.35
2023-02-15T03:07:04.992Z,0.31
2023-02-15T03:08:04.951Z,0.31
2023-02-15T03:09:05.000Z,0.29
2023-02-15T03:10:04.926Z,0.23
2023-02-15T03:11:04.921Z,0.24
2023-02-15T03:12:04.932Z,0.28
2023-02-15T03:13:04.907Z,0.28
2023-02-15T03:14:04.928Z,0.20
2023-02-15T03:15:04.867Z,0.04
2023-02-15T03:16:04.984Z,0.04
2023-02-15T03:17:04.852Z,0.04
2023-02-15T03:18:04.851Z,0.02
2023-02-15T03:19:04.890Z,0.00
2023-02-15T03:20:04.842Z,0.03
2023-02-15T03:21:04.837Z,0.07
2023-02-15T03:22:04.908Z,0.08
2023-02-15T03:23:04.797Z,0.07
2023-02-15T03:24:04.842Z,0.04
2023-02-15T03:25:04.808Z,0.08
2023-02-15T03:26:04.789Z,0.13
2023-02-15T03:27:04.755Z,0.14
2023-02-15T03:28:04.751Z,0.13
2023-02-15T03:29:04.725Z,0.14
2023-02-15T03:30:04.786Z,0.10
2023-02-15T03:31:04.826Z,0.11
2023-02-15T03:32:04.732Z,0.11
2023-02-15T03:33:04.685Z,0.07
2023-02-15T03:34:04.684Z,0.02
2023-02-15T03:35:04.661Z,0.00
2023-02-15T03:36:04.712Z,-0.04
2023-02-15T03:37:06.781Z,-0.08
2023-02-15T03:38:04.653Z,-0.19
2023-02-15T03:39:04.641Z,-0.25
2023-02-15T03:40:04.585Z,-0.26
2023-02-15T03:41:04.691Z,-0.22
2023-02-15T03:42:04.609Z,-0.22
2023-02-15T03:43:04.559Z,-0.28
2023-02-15T03:44:04.535Z,-0.31
2023-02-15T03:45:04.556Z,-0.36
2023-02-15T03:46:04.564Z,-0.34
2023-02-15T03:47:04.539Z,-0.37
2023-02-15T03:48:04.507Z,-0.44
2023-02-15T03:49:04.476Z,-0.46
2023-02-15T03:50:04.494Z,-0.47
2023-02-15T03:51:04.477Z,-0.47
2023-02-15T03:52:04.471Z,-0.47
2023-02-15T03:53:04.584Z,-0.46
2023-02-15T03:54:04.455Z,-0.43
2023-02-15T03:55:04.427Z,-0.44
2023-02-15T03:56:04.505Z,-0.46
2023-02-15T03:57:04.407Z,-0.43
2023-02-15T03:58:04.408Z,-0.39
2023-02-15T03:59:04.426Z,-0.29
2023-02-15T04:00:04.400Z,-0.21
2023-02-15T04:01:04.425Z,-0.15
2023-02-15T04:02:04.355Z,-0.07
2023-02-15T04:03:04.382Z,0.02
2023-02-15T04:04:04.367Z,0.03
2023-02-15T04:05:04.328Z,0.08
2023-02-15T04:06:04.425Z,0.11
2023-02-15T04:07:04.311Z,0.14
2023-02-15T04:08:04.287Z,0.14
2023-02-15T04:09:04.256Z,0.13
2023-02-15T04:10:04.286Z,0.14
2023-02-15T04:11:04.241Z,0.14
2023-02-15T04:12:04.236Z,0.13
2023-02-15T04:13:04.242Z,0.14
2023-02-15T04:14:04.242Z,0.18
2023-02-15T04:15:04.241Z,0.17
2023-02-15T04:16:05.096Z,0.21
2023-02-15T04:17:04.166Z,0.21
2023-02-15T04:18:04.157Z,0.21
2023-02-15T04:19:04.136Z,0.23
2023-02-15T04:20:04.141Z,0.24
2023-02-15T04:21:04.178Z,0.24
2023-02-15T04:22:04.112Z,0.26
2023-02-15T04:23:04.093Z,0.28
2023-02-15T04:24:04.101Z,0.26
2023-02-15T04:25:04.078Z,0.24
2023-02-15T04:26:04.118Z,0.21
2023-02-15T04:27:04.062Z,0.18
2023-02-15T04:28:04.035Z,0.15
2023-02-15T04:29:04.056Z,0.15
2023-02-15T04:30:04.072Z,0.15
2023-02-15T04:31:04.076Z,0.17
2023-02-15T04:32:04.035Z,0.20
2023-02-15T04:33:03.988Z,0.18
2023-02-15T04:34:04.028Z,0.13
2023-02-15T04:35:03.989Z,0.10
2023-02-15T04:36:04.031Z,0.07
2023-02-15T04:37:03.962Z,0.04
2023-02-15T04:38:03.974Z,0.07
2023-02-15T04:39:03.908Z,0.10
2023-02-15T04:40:03.995Z,0.11
2023-02-15T04:41:03.893Z,0.04
2023-02-15T04:42:03.909Z,0.00
2023-02-15T04:43:03.856Z,-0.01
2023-02-15T04:44:03.862Z,-0.01
2023-02-15T04:45:03.838Z,0.00
2023-02-15T04:46:04.384Z,0.00
2023-02-15T04:47:03.833Z,0.00
2023-02-15T04:48:03.808Z,0.02
2023-02-15T04:49:03.846Z,0.02
2023-02-15T04:50:03.804Z,0.02
2023-02-15T04:51:03.822Z,-0.04
2023-02-15T04:52:03.760Z,-0.07
2023-02-15T04:53:03.737Z,-0.05
2023-02-15T04:54:03.761Z,-0.05
2023-02-15T04:55:03.748Z,-0.07
2023-02-15T04:56:03.892Z,-0.08
2023-02-15T04:57:03.735Z,-0.07
2023-02-15T04:58:03.707Z,-0.05
2023-02-15T04:59:03.679Z,-0.03
2023-02-15T05:00:03.685Z,-0.05
2023-02-15T05:01:03.762Z,-0.04
2023-02-15T05:02:03.691Z,-0.01
2023-02-15T05:03:03.655Z,0.02
2023-02-15T05:04:03.663Z,0.02
2023-02-15T05:05:03.644Z,0.03
2023-02-15T05:06:03.814Z,0.02
2023-02-15T05:07:03.622Z,0.04
2023-02-15T05:08:03.620Z,0.07
2023-02-15T05:09:03.584Z,0.11
2023-02-15T05:10:03.600Z,0.08
2023-02-15T05:11:03.613Z,0.03
2023-02-15T05:12:03.557Z,0.02
2023-02-15T05:13:03.568Z,0.02
2023-02-15T05:14:03.505Z,0.00
2023-02-15T05:15:03.584Z,-0.03
2023-02-15T05:16:03.775Z,0.02
2023-02-15T05:17:03.484Z,0.03
2023-02-15T05:18:03.487Z,0.04
2023-02-15T05:19:03.473Z,0.03
2023-02-15T05:20:03.520Z,0.02
2023-02-15T05:21:03.482Z,0.04
2023-02-15T05:22:03.501Z,0.03
2023-02-15T05:23:03.410Z,0.03
2023-02-15T05:24:03.416Z,0.03
2023-02-15T05:25:03.394Z,0.07
2023-02-15T05:26:03.620Z,0.10
2023-02-15T05:27:03.408Z,0.08
2023-02-15T05:28:05.239Z,0.10
2023-02-15T05:29:03.392Z,0.13
2023-02-15T05:30:03.512Z,0.13
2023-02-15T05:31:03.621Z,0.11
2023-02-15T05:32:03.511Z,0.13
2023-02-15T05:33:03.363Z,0.14
2023-02-15T05:34:03.379Z,0.08
2023-02-15T05:35:03.287Z,0.08
2023-02-15T05:36:03.518Z,0.04
2023-02-15T05:37:03.276Z,0.07
2023-02-15T05:38:03.352Z,0.07
2023-02-15T05:39:03.269Z,0.08
2023-02-15T05:40:03.244Z,0.08
2023-02-15T05:41:03.224Z,0.08
2023-02-15T05:42:03.288Z,0.10
2023-02-15T05:43:03.214Z,0.07
2023-02-15T05:44:03.229Z,0.07
2023-02-15T05:45:03.172Z,0.04
2023-02-15T05:46:03.595Z,0.02
2023-02-15T05:47:03.196Z,-0.04
2023-02-15T05:48:03.219Z,-0.08
2023-02-15T05:49:03.161Z,-0.08
2023-02-15T05:50:03.115Z,-0.11
2023-02-15T05:51:03.110Z,-0.10
2023-02-15T05:52:03.183Z,-0.10
2023-02-15T05:53:03.119Z,-0.10
2023-02-15T05:54:03.085Z,-0.11
2023-02-15T05:55:03.141Z,-0.11
2023-02-15T05:56:03.438Z,-0.10
2023-02-15T05:57:03.030Z,-0.10
2023-02-15T05:58:03.039Z,-0.10
2023-02-15T05:59:03.061Z,-0.08
2023-02-15T06:00:03.071Z,-0.07
2023-02-15T06:01:03.010Z,-0.05
2023-02-15T06:02:03.033Z,-0.04
2023-02-15T06:03:03.024Z,-0.03
2023-02-15T06:04:03.031Z,-0.01
2023-02-15T06:05:03.014Z,0.00
2023-02-15T06:06:03.234Z,0.02
2023-02-15T06:07:02.982Z,0.03
2023-02-15T06:08:04.556Z,0.03
2023-02-15T06:09:02.921Z,0.03
2023-02-15T06:10:02.964Z,0.07
2023-02-15T06:11:02.880Z,0.07
2023-02-15T06:12:02.897Z,0.04
2023-02-15T06:13:02.895Z,0.03
2023-02-15T06:14:02.862Z,0.00
2023-02-15T06:15:02.852Z,0.02
2023-02-15T06:16:03.212Z,0.00
2023-02-15T06:17:02.813Z,0.02
2023-02-15T06:18:02.856Z,0.03
2023-02-15T06:19:02.892Z,0.02
2023-02-15T06:20:02.803Z,0.02
2023-02-15T06:21:02.799Z,0.02
2023-02-15T06:22:02.793Z,0.07
2023-02-15T06:23:02.776Z,0.08
2023-02-15T06:24:02.771Z,0.11
2023-02-15T06:25:02.758Z,0.10
2023-02-15T06:26:03.015Z,0.07
2023-02-15T06:27:02.731Z,0.08
2023-02-15T06:28:02.713Z,0.02
2023-02-15T06:29:02.700Z,0.02
2023-02-15T06:30:02.757Z,-0.01
2023-02-15T06:31:02.784Z,-0.01
2023-02-15T06:32:03.020Z,0.00
2023-02-15T06:33:02.649Z,0.02
2023-02-15T06:34:02.656Z,0.00
2023-02-15T06:35:02.635Z,-0.05
2023-02-15T06:36:02.950Z,-0.11
2023-02-15T06:37:02.608Z,-0.11
2023-02-15T06:38:02.648Z,-0.08
2023-02-15T06:39:02.588Z,-0.08
2023-02-15T06:40:03.928Z,-0.08
2023-02-15T06:41:02.585Z,-0.10
2023-02-15T06:42:02.524Z,-0.07
2023-02-15T06:43:02.549Z,-0.05
2023-02-15T06:44:02.542Z,-0.05
2023-02-15T06:45:02.504Z,-0.04
2023-02-15T06:46:02.893Z,0.00
2023-02-15T06:47:02.486Z,0.03
2023-02-15T06:48:02.481Z,0.03
2023-02-15T06:49:02.485Z,0.02
2023-02-15T06:50:02.468Z,0.04
2023-02-15T06:51:02.485Z,0.07
2023-02-15T06:52:02.437Z,0.08
2023-02-15T06:53:02.404Z,0.08
2023-02-15T06:54:02.415Z,0.11
2023-02-15T06:55:02.541Z,0.13
2023-02-15T06:56:02.703Z,0.11
2023-02-15T06:57:02.407Z,0.07
2023-02-15T06:58:02.389Z,0.07
2023-02-15T06:59:02.352Z,0.08
2023-02-15T07:00:02.349Z,0.10
2023-02-15T07:01:02.438Z,0.11
2023-02-15T07:02:02.336Z,0.10
2023-02-15T07:03:02.296Z,0.13
2023-02-15T07:04:02.302Z,0.14
2023-02-15T07:05:02.401Z,0.14
2023-02-15T07:06:02.707Z,0.11
2023-02-15T07:07:02.298Z,0.08
2023-02-15T07:08:02.278Z,0.11
2023-02-15T07:09:02.280Z,0.04
2023-02-15T07:10:02.231Z,-0.01
2023-02-15T07:11:02.232Z,-0.04
2023-02-15T07:12:02.253Z,-0.03
2023-02-15T07:13:02.230Z,-0.05
2023-02-15T07:14:02.171Z,-0.10
2023-02-15T07:15:02.191Z,-0.14
2023-02-15T07:16:02.474Z,-0.11
2023-02-15T07:17:02.153Z,-0.05
2023-02-15T07:18:02.161Z,-0.03
2023-02-15T07:19:02.118Z,0.03
2023-02-15T07:20:02.120Z,0.07
2023-02-15T07:21:02.082Z,0.03
2023-02-15T07:22:02.098Z,-0.03
2023-02-15T07:23:02.107Z,-0.08
2023-02-15T07:24:02.064Z,-0.21
2023-02-15T07:25:02.059Z,-0.25
2023-02-15T07:26:02.342Z,-0.36
2023-02-15T07:27:02.034Z,-0.46
2023-02-15T07:28:02.079Z,-0.54
2023-02-15T07:29:02.031Z,-0.72
2023-02-15T07:30:02.026Z,-0.82
2023-02-15T07:31:02.057Z,-0.82
2023-02-15T07:32:02.087Z,-0.86
2023-02-15T07:33:04.778Z,-0.82
2023-02-15T07:34:01.996Z,-0.76
2023-02-15T07:35:01.937Z,-0.70
2023-02-15T07:36:02.285Z,-0.64
2023-02-15T07:37:01.952Z,-0.62
2023-02-15T07:38:01.924Z,-0.70
2023-02-15T07:39:02.023Z,-0.73
2023-02-15T07:40:01.898Z,-0.69
2023-02-15T07:41:01.862Z,-0.65
2023-02-15T07:42:01.857Z,-0.64
2023-02-15T07:43:01.877Z,-0.61
2023-02-15T07:44:01.868Z,-0.55
2023-02-15T07:45:01.862Z,-0.47
2023-02-15T07:46:02.166Z,-0.43
2023-02-15T07:47:01.827Z,-0.44
2023-02-15T07:48:01.781Z,-0.60
2023-02-15T07:49:01.806Z,-0.58
2023-02-15T07:50:01.804Z,-0.49
2023-02-15T07:51:01.809Z,-0.46
2023-02-15T07:52:01.735Z,-0.37
2023-02-15T07:53:01.733Z,-0.29
2023-02-15T07:54:01.734Z,-0.23
2023-02-15T07:55:01.751Z,-0.18
2023-02-15T07:56:02.082Z,-0.15
2023-02-15T07:57:01.681Z,-0.11
2023-02-15T07:58:01.674Z,-0.10
2023-02-15T07:59:01.682Z,-0.10
2023-02-15T08:00:01.695Z,-0.10
2023-02-15T08:01:01.674Z,-0.08
2023-02-15T08:02:01.705Z,-0.07
2023-02-15T08:03:01.831Z,-0.01
2023-02-15T08:04:02.689Z,0.07
2023-02-15T08:05:01.603Z,0.10
2023-02-15T08:06:01.934Z,0.11
2023-02-15T08:07:01.592Z,0.11
2023-02-15T08:08:01.575Z,0.20
2023-02-15T08:09:01.540Z,0.28
2023-02-15T08:10:01.529Z,0.38
2023-02-15T08:11:01.550Z,0.41
2023-02-15T08:12:01.551Z,0.49
2023-02-15T08:13:01.508Z,0.55
2023-02-15T08:14:01.513Z,0.61
2023-02-15T08:15:01.505Z,0.69
2023-02-15T08:16:01.883Z,0.76
2023-02-15T08:17:01.464Z,0.86
2023-02-15T08:18:01.506Z,0.93
2023-02-15T08:19:01.460Z,0.94
2023-02-15T08:20:01.432Z,0.86
2023-02-15T08:21:01.397Z,0.84
2023-02-15T08:22:01.420Z,0.84
2023-02-15T08:23:01.380Z,0.87
2023-02-15T08:24:01.450Z,0.88
2023-02-15T08:25:01.397Z,0.93
2023-02-15T08:26:01.733Z,0.90
2023-02-15T08:27:01.368Z,0.96
2023-02-15T08:28:01.319Z,1.02
2023-02-15T08:29:01.370Z,1.06
2023-02-15T08:30:01.337Z,1.08
2023-02-15T08:31:01.681Z,1.04
2023-02-15T08:32:01.337Z,0.97
2023-02-15T08:33:01.283Z,0.88
2023-02-15T08:34:01.335Z,0.83
2023-02-15T08:35:01.263Z,0.80
2023-02-15T08:36:01.237Z,0.90
2023-02-15T08:37:01.242Z,0.96
2023-02-15T08:38:01.217Z,0.91
2023-02-15T08:39:01.211Z,0.86
2023-02-15T08:40:01.293Z,0.88
2023-02-15T08:41:01.490Z,0.97
2023-02-15T08:42:01.177Z,1.09
2023-02-15T08:43:01.189Z,1.14
2023-02-15T08:44:01.146Z,1.23
2023-02-15T08:45:01.207Z,1.33
2023-02-15T08:46:01.174Z,1.40
2023-02-15T08:47:01.137Z,1.51
2023-02-15T08:48:01.084Z,1.60
2023-02-15T08:49:01.150Z,1.65
2023-02-15T08:50:01.090Z,1.69
2023-02-15T08:51:01.437Z,1.73
2023-02-15T08:52:01.041Z,1.80
2023-02-15T08:53:01.040Z,1.76
2023-02-15T08:54:01.053Z,1.70
2023-02-15T08:55:01.042Z,1.66
2023-02-15T08:56:00.998Z,1.66
2023-02-15T08:57:01.103Z,1.79
2023-02-15T08:58:00.988Z,1.86
2023-02-15T08:59:01.006Z,1.98
2023-02-15T09:00:00.966Z,1.98
2023-02-15T09:01:01.279Z,2.07
2023-02-15T09:02:01.092Z,2.12
2023-02-15T09:03:00.928Z,2.05
2023-02-15T09:04:00.934Z,2.03
2023-02-15T09:05:00.898Z,2.00
2023-02-15T09:06:00.912Z,2.05
2023-02-15T09:07:00.896Z,2.16
2023-02-15T09:08:00.875Z,2.27
2023-02-15T09:09:00.878Z,2.27
2023-02-15T09:10:00.918Z,2.31
2023-02-15T09:11:01.196Z,2.31
2023-02-15T09:12:00.842Z,2.27
2023-02-15T09:13:00.849Z,2.30
2023-02-15T09:14:00.828Z,2.43
2023-02-15T09:15:00.785Z,2.57
2023-02-15T09:16:00.774Z,2.64
2023-02-15T09:17:00.785Z,2.77
2023-02-15T09:18:00.766Z,2.84
2023-02-15T09:19:00.792Z,2.97
2023-02-15T09:20:00.779Z,3.06
2023-02-15T09:21:01.082Z,3.13
2023-02-15T09:22:00.720Z,3.24
2023-02-15T09:23:00.703Z,3.39
2023-02-15T09:24:00.704Z,3.51
2023-02-15T09:25:00.673Z,3.54
2023-02-15T09:26:00.709Z,3.66
2023-02-15T09:27:00.689Z,3.66
2023-02-15T09:28:00.665Z,3.60
2023-02-15T09:29:00.704Z,3.60
2023-02-15T09:30:00.724Z,3.58
2023-02-15T09:31:01.186Z,3.54
2023-02-15T09:32:00.677Z,3.73
2023-02-15T09:33:00.572Z,3.86
2023-02-15T09:34:00.576Z,3.91
2023-02-15T09:35:00.549Z,3.94
2023-02-15T09:36:00.570Z,3.76
2023-02-15T09:37:00.567Z,3.84
2023-02-15T09:38:00.527Z,3.76
2023-02-15T09:39:00.493Z,3.65
2023-02-15T09:40:00.496Z,3.48
2023-02-15T09:41:00.967Z,3.31
2023-02-15T09:42:00.508Z,3.20
2023-02-15T09:43:00.489Z,3.20
2023-02-15T09:44:00.431Z,3.14
2023-02-15T09:45:00.482Z,3.11
2023-02-15T09:46:00.506Z,3.13
2023-02-15T09:47:00.396Z,3.15
2023-02-15T09:48:00.391Z,3.33
2023-02-15T09:49:00.406Z,4.40
2023-02-15T09:50:00.413Z,5.45
2023-02-15T09:51:00.748Z,6.41
2023-02-15T09:52:00.384Z,7.16
2023-02-15T09:53:00.346Z,8.08
2023-02-15T09:54:00.488Z,8.70
2023-02-15T09:55:00.348Z,9.01
2023-02-15T09:56:00.477Z,9.31
2023-02-15T09:57:00.338Z,9.74
2023-02-15T09:58:00.282Z,9.78
2023-02-15T09:59:00.301Z,9.86
2023-02-15T10:00:00.277Z,10.08
2023-02-15T10:01:00.809Z,10.55
2023-02-15T10:02:00.237Z,10.82
2023-02-15T10:03:00.224Z,11.10
2023-02-15T10:04:00.241Z,11.00
2023-02-15T10:05:00.189Z,11.04
2023-02-15T10:06:00.189Z,11.07
2023-02-15T10:07:00.227Z,10.96
2023-02-15T10:08:00.189Z,11.02
2023-02-15T10:09:01.168Z,11.07
2023-02-15T10:10:00.183Z,11.27
2023-02-15T10:11:00.590Z,11.82
2023-02-15T10:12:00.136Z,12.20
2023-02-15T10:13:00.118Z,12.29
2023-02-15T10:14:00.134Z,12.45
2023-02-15T10:15:00.101Z,12.77
2023-02-15T10:16:00.113Z,13.07
2023-02-15T10:17:00.130Z,13.45
2023-02-15T10:18:00.063Z,13.62
2023-02-15T10:19:00.071Z,13.66
2023-02-15T10:20:00.092Z,13.66
2023-02-15T10:21:00.360Z,13.70
2023-02-15T10:22:00.018Z,13.62
2023-02-15T10:23:00.013Z,13.63
2023-02-15T10:23:59.968Z,13.69
2023-02-15T10:25:00.204Z,13.81
2023-02-15T10:26:00.335Z,13.57
2023-02-15T10:26:59.979Z,13.51
2023-02-15T10:27:59.983Z,13.55
2023-02-15T10:28:59.931Z,13.55
2023-02-15T10:29:59.959Z,13.63
2023-02-15T10:31:00.182Z,14.00
2023-02-15T10:31:59.961Z,14.15
2023-02-15T10:32:59.946Z,13.99
2023-02-15T10:33:59.851Z,14.03
2023-02-15T10:34:59.842Z,14.02
2023-02-15T10:35:59.830Z,14.10
2023-02-15T10:36:59.836Z,14.18
2023-02-15T10:37:59.825Z,14.10
2023-02-15T10:38:59.856Z,14.03
2023-02-15T10:39:59.797Z,14.07
2023-02-15T10:41:00.169Z,14.25
2023-02-15T10:41:59.795Z,14.14
2023-02-15T10:42:59.765Z,13.78
2023-02-15T10:43:59.785Z,13.82
2023-02-15T10:44:59.779Z,14.06
2023-02-15T10:45:59.927Z,14.42
2023-02-15T10:47:00.114Z,14.83
2023-02-15T10:47:59.776Z,15.21
2023-02-15T10:48:59.951Z,15.31
2023-02-15T10:49:59.757Z,15.19
2023-02-15T10:51:00.028Z,15.17
2023-02-15T10:51:59.747Z,15.06
2023-02-15T10:52:59.747Z,15.11
2023-02-15T10:53:59.808Z,15.21
2023-02-15T10:54:59.673Z,15.14
2023-02-15T10:55:59.746Z,15.11
2023-02-15T10:56:59.780Z,14.83
2023-02-15T10:58:01.277Z,15.09
2023-02-15T10:58:59.635Z,15.31
2023-02-15T10:59:59.689Z,15.38
2023-02-15T11:00:59.726Z,15.29
2023-02-15T11:01:59.608Z,14.96
2023-02-15T11:02:59.696Z,15.21
2023-02-15T11:03:59.526Z,15.23
2023-02-15T11:04:59.702Z,15.17
2023-02-15T11:05:59.563Z,15.32
2023-02-15T11:06:59.487Z,15.50
2023-02-15T11:07:59.477Z,15.69
2023-02-15T11:08:59.497Z,16.01
2023-02-15T11:09:59.477Z,15.94
2023-02-15T11:10:59.609Z,16.08
2023-02-15T11:11:59.408Z,16.04
2023-02-15T11:12:59.443Z,15.89
2023-02-15T11:13:59.407Z,15.97
2023-02-15T11:14:59.395Z,16.09
2023-02-15T11:15:59.428Z,15.94
2023-02-15T11:16:59.391Z,16.04
2023-02-15T11:17:59.386Z,16.28
2023-02-15T11:18:59.396Z,16.52
2023-02-15T11:19:59.380Z,16.57
2023-02-15T11:20:59.401Z,16.58
2023-02-15T11:21:59.324Z,16.70
2023-02-15T11:22:59.334Z,16.76
2023-02-15T11:23:59.328Z,16.93
2023-02-15T11:24:59.299Z,16.83
2023-02-15T11:25:59.301Z,16.67
2023-02-15T11:26:59.312Z,16.57
2023-02-15T11:27:59.251Z,16.61
2023-02-15T11:28:59.229Z,16.64
2023-02-15T11:29:59.277Z,16.67
2023-02-15T11:30:59.299Z,16.53
2023-02-15T11:31:59.405Z,16.38
2023-02-15T11:32:59.258Z,16.33
2023-02-15T11:33:59.160Z,16.45
2023-02-15T11:34:59.171Z,16.53
2023-02-15T11:35:59.169Z,16.66
2023-02-15T11:36:59.187Z,16.73
2023-02-15T11:37:59.120Z,16.66
2023-02-15T11:38:59.143Z,16.52
2023-02-15T11:39:59.097Z,16.39
2023-02-15T11:40:59.112Z,16.27
2023-02-15T11:41:59.077Z,16.15
2023-02-15T11:42:59.106Z,16.09
2023-02-15T11:43:59.072Z,16.30
2023-02-15T11:44:59.092Z,16.70
2023-02-15T11:45:59.073Z,16.91
2023-02-15T11:46:59.033Z,16.88
2023-02-15T11:47:59.060Z,17.01
2023-02-15T11:48:59.019Z,17.06
2023-02-15T11:49:59.009Z,16.82
2023-02-15T11:50:59.100Z,16.63
2023-02-15T11:51:59.028Z,16.82
2023-02-15T11:52:58.984Z,17.07
2023-02-15T11:53:58.964Z,17.23
2023-02-15T11:54:58.937Z,17.51
2023-02-15T11:55:58.919Z,17.41
2023-02-15T11:56:58.926Z,17.37
2023-02-15T11:57:58.942Z,17.46
2023-02-15T11:58:58.906Z,17.46
2023-02-15T11:59:58.877Z,17.46
2023-02-15T12:00:58.873Z,17.48
2023-02-15T12:01:58.883Z,17.18
2023-02-15T12:02:58.906Z,17.14
2023-02-15T12:03:59.000Z,17.36
2023-02-15T12:04:58.835Z,17.70
2023-02-15T12:05:58.804Z,17.92
2023-02-15T12:07:02.190Z,17.96
2023-02-15T12:07:58.797Z,18.15
2023-02-15T12:08:58.810Z,18.32
2023-02-15T12:09:58.817Z,18.39
2023-02-15T12:10:58.773Z,18.41
2023-02-15T12:11:58.761Z,18.03
2023-02-15T12:12:58.739Z,17.96
2023-02-15T12:13:58.721Z,17.84
2023-02-15T12:14:58.733Z,17.66
2023-02-15T12:15:58.720Z,17.74
2023-02-15T12:16:58.689Z,17.75
2023-02-15T12:17:58.718Z,17.72
2023-02-15T12:18:58.654Z,17.66
2023-02-15T12:19:58.674Z,17.56
2023-02-15T12:20:58.652Z,17.36
2023-02-15T12:21:58.623Z,17.19
2023-02-15T12:22:58.655Z,17.23
2023-02-15T12:23:58.894Z,17.46
2023-02-15T12:24:58.644Z,17.79
2023-02-15T12:25:58.588Z,18.11
2023-02-15T12:26:58.592Z,18.45
2023-02-15T12:27:58.584Z,18.58
2023-02-15T12:28:58.579Z,18.54
2023-02-15T12:29:58.568Z,18.39
2023-02-15T12:30:58.576Z,18.33
2023-02-15T12:31:58.714Z,18.17
2023-02-15T12:32:58.541Z,18.21
2023-02-15T12:33:58.522Z,18.36
2023-02-15T12:35:01.065Z,18.66
2023-02-15T12:35:58.477Z,18.67
2023-02-15T12:36:58.468Z,18.51
2023-02-15T12:37:58.480Z,18.32
2023-02-15T12:38:59.448Z,18.25
2023-02-15T12:39:58.449Z,18.36
2023-02-15T12:40:58.456Z,18.50
2023-02-15T12:41:58.405Z,18.47
2023-02-15T12:42:58.422Z,18.25
2023-02-15T12:43:58.397Z,18.18
2023-02-15T12:44:58.413Z,18.42
2023-02-15T12:45:58.404Z,18.39
2023-02-15T12:46:58.428Z,18.17
2023-02-15T12:47:58.363Z,18.33
2023-02-15T12:48:58.356Z,18.45
2023-02-15T12:49:58.336Z,18.57
2023-02-15T12:50:58.333Z,18.62
2023-02-15T12:51:58.323Z,18.57
2023-02-15T12:52:58.271Z,18.54
2023-02-15T12:53:58.304Z,18.65
2023-02-15T12:54:58.248Z,18.78
2023-02-15T12:55:58.281Z,18.88
2023-02-15T12:56:58.249Z,18.82
2023-02-15T12:57:58.247Z,18.52
2023-02-15T12:58:58.231Z,18.21
2023-02-15T12:59:58.227Z,17.63
2023-02-15T13:00:58.344Z,16.85
2023-02-15T13:01:58.298Z,16.21
2023-02-15T13:02:58.170Z,15.68
2023-02-15T13:03:58.226Z,15.31
2023-02-15T13:04:58.510Z,14.94
2023-02-15T13:05:58.192Z,14.58
2023-02-15T13:06:58.118Z,14.36
2023-02-15T13:07:58.138Z,14.18